Time;durP1;ratioP1;P1;durP2;ratioP2;P2;SDS_P1;SDS_P2;PMS_P1;PMS_P2;Temp;Humidity;BMP_temperature;BMP_pressure;BME280_temperature;BME280_humidity;BME280_pressure;Samples;Min_cycle;Max_cycle;Signal;HPM_P1;HPM_P2
2021/07/04 00:01:14;;;;;;;6.72;6.00;;;21.00;91.60;;;;;;5100141;28;20114;-82
2021/07/04 00:03:40;;;;;;;7.18;6.30;;;21.10;91.40;;;;;;5082048;28;20028;-82
2021/07/04 00:06:06;;;;;;;7.78;6.35;;;21.10;91.50;;;;;;5096696;28;20073;-82
2021/07/04 00:08:32;;;;;;;7.40;5.90;;;21.10;91.60;;;;;;5096886;28;20024;-82
2021/07/04 00:11:07;;;;;;;7.10;5.90;;;21.10;91.60;;;;;;5078534;28;20119;-82
2021/07/04 00:13:33;;;;;;;6.22;5.63;;;21.10;92.00;;;;;;5078950;28;20064;-82
2021/07/04 00:15:59;;;;;;;7.93;5.97;;;21.10;91.60;;;;;;5078332;28;20030;-82
2021/07/04 00:18:28;;;;;;;7.00;6.10;;;21.00;91.50;;;;;;5096578;28;20024;-83
2021/07/04 00:20:56;;;;;;;7.25;6.30;;;21.00;91.60;;;;;;5078536;28;20024;-82
2021/07/04 00:23:22;;;;;;;6.63;5.93;;;21.10;91.70;;;;;;5078419;28;20454;-82
2021/07/04 00:25:49;;;;;;;7.30;6.22;;;21.00;91.70;;;;;;5096580;28;20029;-82
2021/07/04 00:28:15;;;;;;;7.18;6.20;;;21.00;91.80;;;;;;5095950;28;20024;-82
2021/07/04 00:30:41;;;;;;;7.13;5.55;;;21.00;91.70;;;;;;5096219;28;20028;-82
2021/07/04 00:33:07;;;;;;;6.22;5.47;;;21.00;91.80;;;;;;5096306;28;20028;-82
2021/07/04 00:35:33;;;;;;;6.65;5.57;;;21.00;91.80;;;;;;5096448;28;20035;-82
2021/07/04 00:37:59;;;;;;;6.38;5.28;;;21.00;91.90;;;;;;5077966;28;20482;-82
2021/07/04 00:40:26;;;;;;;6.30;5.30;;;21.00;91.90;;;;;;5096168;28;20024;-81
2021/07/04 00:42:52;;;;;;;6.15;5.30;;;21.00;91.90;;;;;;5101649;28;20414;-82
2021/07/04 00:45:25;;;;;;;6.57;5.40;;;20.90;91.80;;;;;;5105078;28;20042;-81
2021/07/04 00:47:52;;;;;;;5.75;5.15;;;20.90;92.70;;;;;;5097498;28;20052;-81
2021/07/04 00:50:20;;;;;;;5.32;4.82;;;20.90;92.00;;;;;;5098348;28;20487;-81
2021/07/04 00:52:46;;;;;;;5.70;5.00;;;21.00;92.00;;;;;;5097994;28;20067;-82
2021/07/04 00:55:17;;;;;;;7.15;5.22;;;21.00;92.00;;;;;;5098616;28;20023;-81
2021/07/04 00:57:44;;;;;;;6.57;5.32;;;21.00;92.40;;;;;;5098534;28;20031;-81
2021/07/04 01:00:15;;;;;;;5.60;4.70;;;21.00;92.20;;;;;;5098064;28;20028;-81
2021/07/04 01:02:42;;;;;;;6.03;4.97;;;20.90;92.10;;;;;;5098064;28;20493;-81
2021/07/04 01:05:22;;;;;;;5.43;4.88;;;20.90;92.20;;;;;;5097930;28;20034;-81
2021/07/04 01:07:49;;;;;;;6.75;4.85;;;20.90;92.40;;;;;;5098087;28;20061;-81
2021/07/04 01:10:17;;;;;;;4.90;4.40;;;20.90;92.10;;;;;;5115890;28;20095;-81
2021/07/04 01:12:48;;;;;;;5.45;4.53;;;20.90;92.10;;;;;;5116112;28;20047;-81
2021/07/04 01:15:17;;;;;;;5.50;4.90;;;20.80;92.10;;;;;;5116104;28;20035;-81
2021/07/04 01:17:44;;;;;;;6.43;4.68;;;20.80;92.20;;;;;;5096403;28;20471;-81
2021/07/04 01:20:17;;;;;;;5.38;4.50;;;20.80;92.30;;;;;;5115653;28;20019;-81
2021/07/04 01:23:15;;;;;;;5.13;4.53;;;20.80;92.20;;;;;;5097445;28;20023;-81
2021/07/04 01:25:44;;;;;;;5.03;4.43;;;20.80;92.60;;;;;;5102586;28;20040;-81
2021/07/04 01:28:11;;;;;;;4.72;4.25;;;20.80;92.30;;;;;;5097420;28;20422;-82
2021/07/04 01:30:37;;;;;;;4.97;4.10;;;20.80;92.30;;;;;;5115513;28;20419;-82
2021/07/04 01:33:03;;;;;;;5.40;4.22;;;20.80;92.40;;;;;;5115630;28;20039;-82
2021/07/04 01:35:30;;;;;;;5.53;4.50;;;20.80;92.60;;;;;;5115622;28;20019;-82
2021/07/04 01:37:56;;;;;;;5.43;4.38;;;20.80;92.50;;;;;;5115600;28;20023;-82
2021/07/04 01:40:22;;;;;;;5.15;4.35;;;20.70;92.50;;;;;;5095650;28;20031;-82
2021/07/04 01:42:49;;;;;;;5.38;4.70;;;20.70;92.50;;;;;;5103761;28;20028;-82
2021/07/04 01:45:18;;;;;;;5.25;4.60;;;20.70;92.60;;;;;;5094956;28;20111;-83
2021/07/04 01:47:45;;;;;;;5.65;4.38;;;20.70;92.70;;;;;;5095338;28;20032;-83
2021/07/04 01:50:17;;;;;;;5.40;4.57;;;20.70;92.60;;;;;;5076444;28;20047;-83
2021/07/04 01:52:43;;;;;;;5.78;4.57;;;20.70;92.80;;;;;;5076683;28;20028;-82
2021/07/04 01:55:11;;;;;;;5.22;4.72;;;20.70;92.70;;;;;;5076354;28;20362;-82
2021/07/04 01:57:36;;;;;;;6.70;5.22;;;20.70;92.70;;;;;;5076652;28;20409;-82
2021/07/04 02:00:13;;;;;;;5.63;4.80;;;20.60;92.80;;;;;;5076816;28;20024;-82
2021/07/04 02:02:39;;;;;;;7.15;5.18;;;20.60;93.00;;;;;;5076546;28;20039;-82
2021/07/04 02:05:07;;;;;;;5.65;4.75;;;20.60;92.90;;;;;;5094427;28;20020;-83
2021/07/04 02:07:32;;;;;;;5.63;4.63;;;20.60;93.00;;;;;;5094309;28;20355;-81
2021/07/04 02:09:58;;;;;;;5.93;5.20;;;20.50;93.20;;;;;;5075909;28;20111;-81
2021/07/04 02:12:24;;;;;;;8.13;5.15;;;20.50;93.40;;;;;;5094315;28;20051;-81
2021/07/04 02:14:50;;;;;;;6.07;5.18;;;20.50;93.20;;;;;;5093075;28;20055;-82
2021/07/04 02:17:16;;;;;;;5.57;4.97;;;20.50;93.40;;;;;;5092898;28;20035;-81
2021/07/04 02:19:42;;;;;;;5.90;4.80;;;20.50;93.50;;;;;;5094068;28;20020;-81
2021/07/04 02:22:10;;;;;;;5.78;4.75;;;20.50;93.40;;;;;;5094312;28;20027;-82
2021/07/04 02:24:36;;;;;;;5.38;4.63;;;20.50;93.40;;;;;;5094202;28;20055;-82
2021/07/04 02:27:03;;;;;;;5.88;5.10;;;20.50;93.50;;;;;;5094087;28;20052;-81
2021/07/04 02:29:28;;;;;;;6.22;5.18;;;20.50;93.60;;;;;;5109862;28;20111;-81
2021/07/04 02:31:55;;;;;;;6.35;4.97;;;20.50;93.50;;;;;;5113986;28;20568;-82
2021/07/04 02:34:20;;;;;;;8.23;6.40;;;20.60;93.50;;;;;;5096281;28;20127;-82
2021/07/04 02:36:46;;;;;;;9.98;7.18;;;20.60;93.60;;;;;;5096390;28;20122;-82
2021/07/04 02:39:14;;;;;;;8.45;6.97;;;20.60;93.60;;;;;;5113999;28;20058;-82
2021/07/04 02:41:41;;;;;;;14.73;10.40;;;20.60;93.80;;;;;;5096036;28;20165;-82
2021/07/04 02:44:07;;;;;;;22.52;14.23;;;20.60;93.80;;;;;;5095981;28;20035;-82
2021/07/04 02:46:33;;;;;;;20.98;13.98;;;20.70;93.70;;;;;;5114673;28;20020;-82
2021/07/04 02:48:59;;;;;;;15.75;10.60;;;20.60;93.80;;;;;;5113942;28;20040;-82
2021/07/04 02:51:24;;;;;;;12.25;9.15;;;20.70;94.20;;;;;;5114303;28;20031;-82
2021/07/04 02:53:50;;;;;;;10.57;8.77;;;20.70;94.10;;;;;;5114069;28;20039;-82
2021/07/04 02:56:16;;;;;;;10.98;7.80;;;20.70;94.10;;;;;;5095870;28;20039;-82
2021/07/04 02:58:41;;;;;;;10.55;7.13;;;20.80;94.20;;;;;;5114238;28;20063;-82
2021/07/04 03:01:07;;;;;;;8.80;6.93;;;20.80;94.20;;;;;;5114631;28;20027;-82
2021/07/04 03:03:33;;;;;;;10.30;6.82;;;20.90;94.40;;;;;;5096240;28;20042;-82
2021/07/04 03:05:59;;;;;;;7.97;6.03;;;20.90;94.40;;;;;;5114198;28;20028;-82
2021/07/04 03:08:24;;;;;;;7.97;6.20;;;21.10;94.40;;;;;;5096046;28;20035;-82
2021/07/04 03:10:50;;;;;;;7.43;6.43;;;21.20;94.30;;;;;;5113903;28;20107;-82
2021/07/04 03:13:16;;;;;;;8.30;6.10;;;21.20;94.10;;;;;;5095756;28;20031;-82
2021/07/04 03:15:41;;;;;;;7.82;7.03;;;21.30;94.10;;;;;;5114028;28;20031;-82
2021/07/04 03:18:07;;;;;;;7.63;6.30;;;21.40;93.80;;;;;;5114425;28;20087;-82
2021/07/04 03:20:33;;;;;;;8.65;6.65;;;21.50;93.80;;;;;;5113902;28;20028;-83
2021/07/04 03:22:59;;;;;;;8.45;6.90;;;21.50;93.90;;;;;;5113970;28;20023;-83
2021/07/04 03:25:25;;;;;;;7.78;6.30;;;21.60;93.90;;;;;;5096313;28;20035;-82
2021/07/04 03:27:51;;;;;;;7.30;6.47;;;21.70;93.80;;;;;;5114189;28;20574;-83
2021/07/04 03:30:19;;;;;;;8.23;7.10;;;21.80;93.80;;;;;;5114045;28;20094;-83
2021/07/04 03:32:47;;;;;;;8.73;6.82;;;21.90;93.60;;;;;;5095668;28;20579;-83
2021/07/04 03:35:14;;;;;;;7.28;6.50;;;22.00;93.70;;;;;;5113857;28;20024;-82
2021/07/04 03:37:41;;;;;;;8.77;6.75;;;22.00;93.30;;;;;;5095964;28;20023;-83
2021/07/04 03:40:09;;;;;;;7.82;6.97;;;22.10;93.00;;;;;;5096679;28;20046;-83
2021/07/04 03:42:35;;;;;;;7.10;6.40;;;22.10;92.90;;;;;;5099493;28;20051;-83
2021/07/04 03:45:01;;;;;;;7.13;6.43;;;22.10;92.80;;;;;;5117870;28;20051;-83
2021/07/04 03:47:27;;;;;;;8.38;6.70;;;22.20;92.70;;;;;;5099084;28;20027;-83
2021/07/04 03:49:53;;;;;;;8.52;6.70;;;22.20;92.60;;;;;;5098827;28;20039;-83
2021/07/04 03:52:19;;;;;;;7.43;6.57;;;22.20;92.60;;;;;;5117569;28;20053;-83
2021/07/04 03:54:45;;;;;;;8.18;6.80;;;22.30;92.70;;;;;;5099691;28;20031;-83
2021/07/04 03:57:23;;;;;;;8.98;7.18;;;22.40;92.70;;;;;;5099239;28;20059;-83
2021/07/04 03:59:55;;;;;;;7.88;7.07;;;22.50;92.40;;;;;;5099250;28;20023;-83
2021/07/04 04:02:21;;;;;;;7.22;6.32;;;22.60;92.10;;;;;;5099314;28;20050;-83
2021/07/04 04:04:47;;;;;;;9.65;7.00;;;22.70;91.90;;;;;;5117164;28;20037;-84
2021/07/04 04:07:13;;;;;;;7.75;6.95;;;22.70;91.80;;;;;;5082131;28;20023;-83
2021/07/04 04:09:39;;;;;;;7.63;6.82;;;22.80;91.60;;;;;;5117072;28;20024;-83
2021/07/04 04:12:05;;;;;;;7.50;6.50;;;22.90;91.50;;;;;;5098984;28;20519;-82
2021/07/04 04:14:42;;;;;;;7.85;6.68;;;22.90;91.40;;;;;;5099364;28;20040;-83
2021/07/04 04:17:08;;;;;;;8.73;7.10;;;23.00;91.30;;;;;;5098571;28;20027;-81
2021/07/04 04:19:34;;;;;;;8.85;7.50;;;23.00;91.10;;;;;;5098644;28;20465;-81
2021/07/04 04:22:01;;;;;;;9.45;8.10;;;23.10;91.00;;;;;;5117047;28;20028;-83
2021/07/04 04:24:29;;;;;;;10.27;8.32;;;23.10;90.90;;;;;;5117406;28;20034;-82
2021/07/04 04:26:59;;;;;;;8.65;7.75;;;23.10;91.00;;;;;;5098575;28;20473;-81
2021/07/04 04:29:25;;;;;;;8.50;7.55;;;23.10;90.90;;;;;;5116960;28;20070;-82
2021/07/04 04:31:51;;;;;;;8.30;7.50;;;23.10;90.90;;;;;;5098533;28;20473;-82
2021/07/04 04:34:17;;;;;;;8.60;7.70;;;23.20;90.90;;;;;;5098404;28;20028;-83
2021/07/04 04:36:42;;;;;;;8.32;7.35;;;23.30;90.80;;;;;;5116691;28;20055;-82
2021/07/04 04:39:08;;;;;;;8.60;7.70;;;23.30;90.70;;;;;;5116611;28;20152;-82
2021/07/04 04:41:36;;;;;;;8.50;7.60;;;23.30;90.60;;;;;;5116542;28;20023;-83
2021/07/04 04:44:22;;;;;;;8.80;7.82;;;23.30;90.60;;;;;;5115864;28;20089;-83
2021/07/04 04:46:47;;;;;;;8.68;7.78;;;23.40;91.00;;;;;;5098023;28;20028;-84
2021/07/04 04:49:13;;;;;;;11.05;9.05;;;23.40;90.50;;;;;;5097766;28;20055;-83
2021/07/04 04:51:40;;;;;;;9.98;8.60;;;23.50;90.40;;;;;;5116046;28;20023;-85
2021/07/04 04:54:06;;;;;;;8.80;7.78;;;23.60;90.20;;;;;;5098106;28;20081;-83
2021/07/04 04:56:32;;;;;;;8.20;7.40;;;23.60;90.00;;;;;;5097533;28;20024;-84
2021/07/04 04:58:59;;;;;;;8.13;7.32;;;23.70;90.00;;;;;;5097686;28;20050;-84
2021/07/04 05:01:27;;;;;;;9.45;6.80;;;23.80;89.70;;;;;;5116359;28;20027;-84
2021/07/04 05:03:53;;;;;;;8.65;7.57;;;23.80;89.30;;;;;;5115981;28;20026;-85
2021/07/04 05:06:19;;;;;;;8.35;7.55;;;23.90;88.70;;;;;;5097704;28;20118;-84
2021/07/04 05:08:45;;;;;;;9.32;7.75;;;24.00;88.50;;;;;;5116082;28;20027;-84
2021/07/04 05:11:11;;;;;;;8.73;7.82;;;24.00;88.00;;;;;;5097380;28;20042;-84
2021/07/04 05:13:37;;;;;;;8.02;7.22;;;24.10;87.60;;;;;;5115596;28;20480;-85
2021/07/04 05:16:05;;;;;;;8.00;7.20;;;24.20;87.50;;;;;;5097099;28;20032;-84
2021/07/04 05:18:30;;;;;;;10.10;7.55;;;24.20;87.00;;;;;;5097602;28;20024;-84
2021/07/04 05:20:56;;;;;;;8.73;7.82;;;24.30;86.70;;;;;;5098007;28;20350;-84
2021/07/04 05:23:22;;;;;;;8.98;7.35;;;24.30;86.30;;;;;;5115826;28;20428;-84
2021/07/04 05:25:49;;;;;;;7.18;6.40;;;24.30;86.10;;;;;;5097595;28;20028;-84
2021/07/04 05:28:15;;;;;;;8.18;7.32;;;24.50;86.00;;;;;;5115573;28;20027;-84
2021/07/04 05:30:40;;;;;;;8.20;7.40;;;24.60;85.70;;;;;;5115507;28;20024;-85
2021/07/04 05:33:06;;;;;;;7.57;6.85;;;24.60;85.30;;;;;;5097160;28;20047;-85
2021/07/04 05:35:32;;;;;;;8.00;7.00;;;24.70;84.90;;;;;;5097384;28;20080;-84
2021/07/04 05:37:57;;;;;;;9.32;6.68;;;24.70;84.60;;;;;;5097323;28;20370;-84
2021/07/04 05:40:23;;;;;;;7.50;6.68;;;24.90;84.20;;;;;;5096809;28;20020;-84
2021/07/04 05:42:53;;;;;;;7.47;6.50;;;24.90;83.90;;;;;;5115311;28;20019;-85
2021/07/04 05:45:26;;;;;;;7.00;6.30;;;25.00;83.30;;;;;;5115245;28;20020;-85
2021/07/04 05:47:55;;;;;;;8.52;6.43;;;25.10;82.90;;;;;;5115797;28;20035;-84
2021/07/04 05:50:21;;;;;;;7.28;6.57;;;25.20;82.70;;;;;;5115467;28;20024;-85
2021/07/04 05:52:50;;;;;;;6.75;5.93;;;25.30;82.00;;;;;;5096795;28;20035;-85
2021/07/04 05:55:16;;;;;;;6.72;5.72;;;25.40;81.40;;;;;;5115071;28;20055;-85
2021/07/04 05:57:41;;;;;;;6.53;5.82;;;25.60;81.40;;;;;;5097286;28;20537;-84
2021/07/04 06:00:09;;;;;;;6.60;5.90;;;25.70;81.00;;;;;;5097040;28;20354;-83
2021/07/04 06:02:35;;;;;;;7.10;6.40;;;25.80;80.50;;;;;;5114467;28;20031;-84
2021/07/04 06:05:01;;;;;;;6.85;6.15;;;26.00;80.00;;;;;;5114640;28;20020;-83
2021/07/04 06:07:26;;;;;;;6.90;6.10;;;26.10;79.50;;;;;;5114788;28;20403;-83
2021/07/04 06:09:52;;;;;;;6.57;5.80;;;26.20;79.10;;;;;;5115352;28;20369;-83
2021/07/04 06:12:18;;;;;;;8.30;6.00;;;26.40;78.90;;;;;;5114737;28;20445;-84
2021/07/04 06:14:43;;;;;;;8.35;6.50;;;26.50;78.20;;;;;;5096864;28;20520;-83
2021/07/04 06:17:12;;;;;;;7.25;6.47;;;26.50;77.20;;;;;;5096762;28;20374;-83
2021/07/04 06:19:37;;;;;;;7.10;6.40;;;26.50;76.30;;;;;;5096248;28;20035;-85
2021/07/04 06:22:04;;;;;;;7.13;6.38;;;26.50;76.30;;;;;;5114691;28;20029;-84
2021/07/04 06:24:29;;;;;;;7.53;6.45;;;26.50;76.30;;;;;;5096627;28;20023;-84
2021/07/04 06:26:55;;;;;;;9.60;7.03;;;26.50;76.00;;;;;;5096783;28;20020;-84
2021/07/04 06:29:21;;;;;;;8.25;7.03;;;26.50;76.00;;;;;;5096159;28;20161;-84
2021/07/04 06:31:47;;;;;;;7.88;6.68;;;26.60;76.00;;;;;;5114440;28;20030;-85
2021/07/04 06:34:13;;;;;;;7.82;7.03;;;26.70;76.00;;;;;;5114148;28;20032;-84
2021/07/04 06:36:38;;;;;;;7.95;6.72;;;26.80;75.80;;;;;;5113806;28;20034;-85
2021/07/04 06:39:04;;;;;;;8.20;7.40;;;27.00;75.60;;;;;;5096241;28;20473;-84
2021/07/04 06:41:30;;;;;;;7.63;6.50;;;27.10;75.20;;;;;;5114051;28;20465;-85
2021/07/04 06:43:56;;;;;;;8.68;7.70;;;27.20;75.00;;;;;;5114505;28;20031;-85
2021/07/04 06:46:22;;;;;;;8.35;7.45;;;27.30;74.80;;;;;;5096354;28;20457;-85
2021/07/04 06:48:47;;;;;;;10.15;7.15;;;27.30;74.60;;;;;;5113996;28;20043;-86
2021/07/04 06:51:13;;;;;;;8.95;7.40;;;27.40;74.40;;;;;;5113034;28;20717;-84
2021/07/04 06:53:42;;;;;;;8.35;7.55;;;27.50;74.10;;;;;;5096152;28;20024;-84
2021/07/04 06:56:10;;;;;;;8.45;7.65;;;27.70;74.00;;;;;;5095794;28;20119;-84
2021/07/04 06:58:36;;;;;;;8.35;7.18;;;27.80;73.80;;;;;;5096304;28;20024;-85
2021/07/04 07:01:03;;;;;;;9.00;6.97;;;28.00;73.60;;;;;;5095754;28;20027;-86
2021/07/04 07:03:29;;;;;;;8.20;7.40;;;28.20;73.30;;;;;;5095883;28;20031;-84
2021/07/04 07:05:57;;;;;;;8.93;8.02;;;28.30;72.70;;;;;;5095643;28;20027;-85
2021/07/04 07:08:23;;;;;;;9.30;8.18;;;28.40;72.20;;;;;;5114159;28;20024;-84
2021/07/04 07:10:49;;;;;;;10.98;7.93;;;28.40;72.00;;;;;;5114214;28;20027;-83
2021/07/04 07:13:14;;;;;;;8.43;7.57;;;28.50;71.70;;;;;;5095538;28;20418;-84
2021/07/04 07:15:40;;;;;;;7.88;7.07;;;28.60;71.70;;;;;;5099167;28;20031;-84
2021/07/04 07:18:06;;;;;;;8.18;7.38;;;28.70;71.60;;;;;;5118162;28;20073;-84
2021/07/04 07:20:32;;;;;;;8.40;7.22;;;28.80;71.20;;;;;;5099587;28;20545;-84
2021/07/04 07:22:57;;;;;;;7.78;6.93;;;28.80;70.60;;;;;;5118081;28;20473;-84
2021/07/04 07:25:23;;;;;;;8.07;7.22;;;28.80;70.40;;;;;;5117865;28;20023;-84
2021/07/04 07:27:52;;;;;;;8.20;7.38;;;28.70;70.40;;;;;;5099483;28;20385;-84
2021/07/04 07:30:22;;;;;;;9.00;7.43;;;28.60;70.40;;;;;;5113006;28;20088;-84
2021/07/04 07:32:48;;;;;;;8.48;7.68;;;28.70;70.80;;;;;;5099169;28;20038;-84
2021/07/04 07:35:14;;;;;;;8.38;7.38;;;28.80;70.50;;;;;;5099667;28;20398;-84
2021/07/04 07:37:40;;;;;;;6.82;6.07;;;28.80;70.50;;;;;;5099485;28;20416;-84
2021/07/04 07:40:07;;;;;;;9.23;6.53;;;29.00;70.80;;;;;;5099483;28;20035;-84
2021/07/04 07:42:33;;;;;;;6.68;6.07;;;29.10;70.80;;;;;;5117395;28;20122;-84
2021/07/04 07:45:01;;;;;;;7.80;6.40;;;29.30;69.80;;;;;;5099208;28;20059;-84
2021/07/04 07:47:30;;;;;;;7.10;6.10;;;29.30;69.40;;;;;;5108780;28;20020;-85
2021/07/04 07:49:59;;;;;;;6.45;5.50;;;29.50;69.20;;;;;;5087073;28;20052;-84
2021/07/04 07:52:25;;;;;;;6.40;5.80;;;29.60;69.40;;;;;;5075184;28;20052;-84
2021/07/04 07:54:51;;;;;;;6.95;5.63;;;29.80;69.00;;;;;;5075649;28;20089;-84
2021/07/04 07:57:17;;;;;;;6.10;5.50;;;29.90;68.60;;;;;;5075495;28;20101;-84
2021/07/04 07:59:43;;;;;;;7.38;6.68;;;30.10;68.10;;;;;;5076756;28;20064;-85
2021/07/04 08:02:09;;;;;;;7.13;6.43;;;30.20;67.30;;;;;;5076764;28;20035;-84
2021/07/04 08:04:36;;;;;;;7.57;6.88;;;30.30;67.00;;;;;;5075401;28;20375;-84
2021/07/04 08:07:02;;;;;;;7.25;6.22;;;30.50;66.90;;;;;;5077042;28;20025;-84
2021/07/04 08:09:28;;;;;;;7.78;6.95;;;30.60;66.40;;;;;;5075265;28;20052;-85
2021/07/04 08:11:54;;;;;;;9.48;6.20;;;30.50;65.90;;;;;;5065244;28;20028;-85
2021/07/04 08:14:19;;;;;;;8.63;6.93;;;30.50;65.90;;;;;;5096545;28;20066;-84
2021/07/04 08:16:45;;;;;;;8.80;7.10;;;30.40;65.90;;;;;;5096155;28;20028;-84
2021/07/04 08:19:11;;;;;;;8.23;7.13;;;30.30;66.50;;;;;;5096176;28;20027;-84
2021/07/04 08:21:37;;;;;;;7.88;6.88;;;30.20;66.10;;;;;;5096439;28;20413;-84
2021/07/04 08:24:02;;;;;;;7.25;6.55;;;30.10;66.10;;;;;;5096329;28;20378;-85
2021/07/04 08:26:28;;;;;;;7.65;6.47;;;30.10;66.60;;;;;;5095233;28;20484;-86
2021/07/04 08:28:54;;;;;;;6.90;6.20;;;30.30;67.30;;;;;;5083601;28;20340;-86
2021/07/04 08:31:23;;;;;;;7.45;6.75;;;30.60;67.90;;;;;;5084608;28;20093;-87
2021/07/04 08:33:49;;;;;;;6.90;6.15;;;31.10;67.90;;;;;;5085021;28;20467;-84
2021/07/04 08:36:15;;;;;;;7.15;6.45;;;31.70;68.00;;;;;;5091664;28;20028;-86
2021/07/04 08:38:41;;;;;;;6.72;6.05;;;32.10;66.70;;;;;;5094178;28;20020;-85
2021/07/04 08:41:07;;;;;;;6.97;6.28;;;32.70;66.20;;;;;;5094695;28;20077;-84
2021/07/04 08:43:35;;;;;;;12.90;11.55;;;33.10;65.30;;;;;;5096448;28;20154;-89
2021/07/04 08:46:04;;;;;;;9.02;8.10;;;33.50;64.10;;;;;;5095806;28;20020;-89
2021/07/04 08:48:33;;;;;;;7.85;7.05;;;33.70;62.80;;;;;;5094362;28;20079;-91
2021/07/04 08:50:58;;;;;;;8.00;7.03;;;33.50;60.90;;;;;;5095988;28;20032;-86
2021/07/04 08:53:24;;;;;;;7.53;6.72;;;33.30;60.90;;;;;;5094497;28;20027;-84
2021/07/04 08:55:50;;;;;;;7.22;6.03;;;33.00;60.60;;;;;;5094830;28;20039;-84
2021/07/04 08:58:24;;;;;;;6.57;5.80;;;32.80;60.90;;;;;;5094388;28;20198;-83
2021/07/04 09:01:28;;;;;;;6.35;5.75;;;33.00;60.40;;;;;;5094412;28;20476;-82
2021/07/04 09:04:07;;;;;;;7.40;6.10;;;33.30;58.80;;;;;;5092918;28;20040;-83
2021/07/04 09:06:43;;;;;;;6.45;5.85;;;33.70;58.50;;;;;;5092693;28;20035;-83
2021/07/04 09:09:26;;;;;;;7.18;6.38;;;34.10;58.70;;;;;;5091990;28;20028;-83
2021/07/04 09:11:51;;;;;;;7.28;6.57;;;34.40;58.50;;;;;;5082403;28;20031;-83
2021/07/04 09:14:23;;;;;;;7.07;6.38;;;34.50;58.70;;;;;;5082979;28;20037;-83
2021/07/04 09:16:49;;;;;;;7.45;6.75;;;34.60;58.30;;;;;;5084551;28;20097;-83
2021/07/04 09:19:16;;;;;;;7.07;5.78;;;34.60;57.10;;;;;;5083906;28;20082;-84
2021/07/04 09:21:42;;;;;;;8.13;7.40;;;34.70;57.20;;;;;;5087012;28;20028;-83
2021/07/04 09:24:46;;;;;;;7.32;6.63;;;34.80;56.90;;;;;;5093063;28;20051;-84
2021/07/04 09:27:14;;;;;;;134.48;116.07;;;35.10;52.00;;;;;;5036124;28;20029;-92
2021/07/04 09:29:42;;;;;;;51.50;46.20;;;35.20;56.60;;;;;;5036539;28;20032;-92
2021/07/04 09:33:15;;;;;;;;;;;;;;;;;;;;;
2021/07/04 09:36:03;;;;;;;12.20;10.93;;;35.20;51.10;;;;;;5094641;28;20032;-91
2021/07/04 09:38:36;;;;;;;9.18;8.25;;;34.80;53.40;;;;;;5092946;28;20024;-87
2021/07/04 09:41:05;;;;;;;7.63;6.93;;;34.80;53.70;;;;;;5095033;28;20055;-87
2021/07/04 09:43:32;;;;;;;8.02;7.28;;;34.80;55.00;;;;;;5093634;28;20468;-85
2021/07/04 09:46:00;;;;;;;7.20;6.50;;;34.90;54.80;;;;;;5093363;28;20108;-86
2021/07/04 09:48:28;;;;;;;7.18;6.47;;;35.00;54.40;;;;;;5099779;28;20054;-85
2021/07/04 09:51:11;;;;;;;7.27;6.57;;;34.90;53.90;;;;;;5097087;28;20028;-84
2021/07/04 09:53:49;;;;;;;42.08;37.53;;;34.60;54.10;;;;;;5097246;28;20447;-93
2021/07/04 09:56:23;;;;;;;48.20;43.30;;;34.60;54.80;;;;;;5099798;28;20469;-90
2021/07/04 09:59:08;;;;;;;24.80;22.30;;;34.90;54.80;;;;;;5115416;28;20030;-91
2021/07/04 10:02:11;;;;;;;15.18;13.75;;;35.20;52.40;;;;;;5095927;28;20039;-91
2021/07/04 10:04:38;;;;;;;11.63;10.40;;;35.70;52.70;;;;;;5069041;28;20032;-91
2021/07/04 10:07:06;;;;;;;9.07;8.05;;;36.00;54.40;;;;;;5110094;28;20032;-90
2021/07/04 10:09:33;;;;;;;7.50;6.78;;;36.40;53.00;;;;;;5093178;28;20024;-90
2021/07/04 10:12:01;;;;;;;8.02;7.15;;;36.70;52.30;;;;;;5105211;28;20028;-88
2021/07/04 10:14:27;;;;;;;7.75;6.72;;;36.90;51.70;;;;;;5103454;28;20040;-88
2021/07/04 10:16:59;;;;;;;7.18;6.47;;;37.10;51.30;;;;;;5086906;28;20127;-89
2021/07/04 10:19:27;;;;;;;7.93;6.18;;;37.30;50.60;;;;;;5081158;28;20131;-92
2021/07/04 10:21:57;;;;;;;7.57;6.72;;;37.40;50.70;;;;;;5077826;28;20027;-90
2021/07/04 10:24:24;;;;;;;6.93;5.80;;;37.50;50.00;;;;;;5096112;28;20024;-91
2021/07/04 10:26:54;;;;;;;7.18;6.43;;;37.60;49.40;;;;;;5093383;28;20024;-91
2021/07/04 10:29:25;;;;;;;7.05;6.35;;;37.40;49.20;;;;;;5077148;28;20027;-90
2021/07/04 10:31:51;;;;;;;7.75;6.95;;;37.40;49.60;;;;;;5093368;28;20046;-91
2021/07/04 10:34:18;;;;;;;7.05;6.20;;;37.50;49.50;;;;;;5094914;28;20028;-91
2021/07/04 10:37:02;;;;;;;6.55;5.85;;;37.80;49.50;;;;;;5094538;28;20016;-92
2021/07/04 10:39:33;;;;;;;6.80;5.82;;;38.10;46.80;;;;;;5094429;28;20024;-91
2021/07/04 10:42:01;;;;;;;7.22;6.03;;;38.20;48.60;;;;;;5095152;28;20024;-90
2021/07/04 10:44:47;;;;;;;8.27;5.75;;;38.30;48.00;;;;;;5094330;28;20077;-93
2021/07/04 10:47:20;;;;;;;11.00;6.25;;;38.40;45.40;;;;;;5093413;28;20111;-92
2021/07/04 10:49:52;;;;;;;6.78;6.07;;;38.60;45.80;;;;;;5075909;28;20135;-92
2021/07/04 10:52:34;;;;;;;7.68;6.05;;;38.70;47.50;;;;;;5094220;28;20051;-91
2021/07/04 10:55:01;;;;;;;7.05;6.10;;;38.80;47.10;;;;;;5094706;28;20110;-90
2021/07/04 10:57:35;;;;;;;6.72;6.05;;;38.60;46.40;;;;;;5093706;28;20079;-91
2021/07/04 11:00:01;;;;;;;6.85;6.15;;;38.20;46.10;;;;;;5093233;28;20466;-91
2021/07/04 11:02:46;;;;;;;6.25;5.65;;;37.80;47.20;;;;;;5093997;28;20047;-92
2021/07/04 11:08:02;;;;;;;6.40;5.72;;;37.90;47.40;;;;;;5094323;28;20128;-92
2021/07/04 11:10:33;;;;;;;6.53;5.65;;;38.00;47.20;;;;;;5094377;28;20048;-91
2021/07/04 11:13:08;;;;;;;7.30;5.40;;;38.00;46.70;;;;;;5094145;28;20421;-92
2021/07/04 11:15:36;;;;;;;6.55;5.68;;;38.00;45.30;;;;;;5093371;28;20028;-93
2021/07/04 11:18:08;;;;;;;6.10;5.32;;;38.10;46.50;;;;;;5095362;28;20028;-91
2021/07/04 11:20:40;;;;;;;6.63;5.90;;;38.00;46.20;;;;;;5094069;28;20492;-91
2021/07/04 11:23:19;;;;;;;5.95;5.38;;;38.20;46.50;;;;;;5092887;28;20105;-93
2021/07/04 11:26:05;;;;;;;7.00;5.35;;;38.50;46.40;;;;;;5094408;28;20028;-91
2021/07/04 11:28:33;;;;;;;7.43;5.47;;;38.70;45.20;;;;;;5096798;28;20504;-93
2021/07/04 11:30:59;;;;;;;5.90;5.30;;;38.90;45.70;;;;;;5078223;28;20025;-93
2021/07/04 11:33:35;;;;;;;6.38;5.38;;;39.00;45.40;;;;;;5094646;28;20040;-91
2021/07/04 11:36:16;;;;;;;5.95;5.25;;;39.10;44.90;;;;;;5076518;28;20489;-91
2021/07/04 11:38:42;;;;;;;6.13;5.30;;;39.20;44.20;;;;;;5094632;28;20028;-92
2021/07/04 11:41:32;;;;;;;5.25;4.75;;;39.20;44.80;;;;;;5094526;28;20020;-92
2021/07/04 11:44:20;;;;;;;5.80;5.28;;;39.20;44.40;;;;;;5066537;28;20036;-92
2021/07/04 11:46:51;;;;;;;5.65;4.90;;;38.90;42.90;;;;;;5094402;28;20412;-92
2021/07/04 11:49:24;;;;;;;5.50;5.00;;;38.50;44.70;;;;;;5094058;28;20059;-92
2021/07/04 11:51:59;;;;;;;6.22;4.63;;;38.20;44.40;;;;;;5093703;28;20035;-92
2021/07/04 11:54:31;;;;;;;5.30;4.80;;;38.00;44.70;;;;;;5092683;28;20539;-92
2021/07/04 11:56:56;;;;;;;5.60;4.80;;;37.80;45.20;;;;;;5097931;28;20025;-89
2021/07/04 11:59:25;;;;;;;4.63;4.22;;;37.60;45.50;;;;;;5098134;28;20050;-92
2021/07/04 12:02:01;;;;;;;4.60;4.20;;;37.50;45.50;;;;;;5082078;28;20466;-91
2021/07/04 12:04:35;;;;;;;4.30;3.90;;;37.40;45.30;;;;;;5098325;28;20043;-92
2021/07/04 12:07:09;;;;;;;5.45;4.30;;;37.30;45.70;;;;;;5098224;28;20056;-94
2021/07/04 12:09:45;;;;;;;4.57;4.15;;;37.30;45.60;;;;;;5098165;28;20028;-91
2021/07/04 12:12:27;;;;;;;4.95;4.45;;;37.20;45.90;;;;;;5097406;28;20036;-92
2021/07/04 12:14:58;;;;;;;6.22;5.05;;;37.40;45.50;;;;;;5080257;28;20028;-92
2021/07/04 12:17:32;;;;;;;6.80;4.57;;;37.60;45.60;;;;;;5096946;28;20024;-91
2021/07/04 12:20:06;;;;;;;5.00;4.50;;;37.80;45.30;;;;;;5098180;28;20359;-93
2021/07/04 12:22:34;;;;;;;4.60;4.20;;;38.10;45.30;;;;;;5097372;28;20103;-93
2021/07/04 12:25:03;;;;;;;4.60;4.18;;;38.30;45.30;;;;;;5096955;28;20462;-91
2021/07/04 12:27:39;;;;;;;4.95;4.43;;;38.40;45.00;;;;;;5079083;28;20028;-92
2021/07/04 12:30:11;;;;;;;5.00;4.50;;;38.60;44.60;;;;;;5097061;28;20020;-92
2021/07/04 12:33:02;;;;;;;4.97;4.20;;;38.60;44.20;;;;;;5095636;28;20421;-92
2021/07/04 12:35:32;;;;;;;6.50;4.28;;;38.40;43.00;;;;;;5097021;28;20089;-92
2021/07/04 12:38:29;;;;;;;4.85;4.32;;;38.20;45.30;;;;;;5096811;28;20097;-91
2021/07/04 12:41:14;;;;;;;5.55;4.60;;;38.20;44.80;;;;;;5007545;28;20500;-91
2021/07/04 12:43:48;;;;;;;4.80;4.30;;;38.30;43.80;;;;;;5096525;28;20369;-90
2021/07/04 12:46:30;;;;;;;4.65;4.18;;;38.40;43.90;;;;;;5078511;28;20122;-91
2021/07/04 12:49:00;;;;;;;4.28;3.83;;;38.10;43.70;;;;;;5096833;28;20133;-90
2021/07/04 12:51:30;;;;;;;4.40;4.00;;;37.60;44.60;;;;;;5078126;28;20024;-90
2021/07/04 12:53:56;;;;;;;4.40;4.00;;;37.40;45.10;;;;;;5095137;28;20165;-90
2021/07/04 12:56:29;;;;;;;4.45;4.03;;;37.30;45.20;;;;;;5096572;28;20032;-90
2021/07/04 12:58:57;;;;;;;4.85;4.32;;;37.40;45.40;;;;;;5097082;28;20466;-90